Wetterdaten: Woche 19.11.01 - 25.11.01 (KW47)
Datum Zeit Temperatur Luftfeuchte Luftdruck Regenmenge Wind Richtung Taupunkt Windchill
19.11.2001 00:00 0.0 C 90 % 1014.0 hPa 0.0 l/m 4.9 km/h (1 Bft) O-SO -1.4 C -1.4 C
19.11.2001 01:00 0.1 C 90 % 1013.9 hPa 0.0 l/m 4.8 km/h (1 Bft) O-SO -1.3 C -1.2 C
19.11.2001 02:00 0.1 C 90 % 1014.1 hPa 0.0 l/m 4.2 km/h (1 Bft) O-SO -1.3 C -1.3 C
19.11.2001 03:00 0.1 C 89 % 1013.9 hPa 0.0 l/m 0.3 km/h (0 Bft) N -1.5 C 0.1 C
19.11.2001 04:00 -0.1 C 89 % 1013.9 hPa 0.0 l/m 0.0 km/h (0 Bft) N -1.7 C -0.1 C
19.11.2001 05:00 -0.2 C 89 % 1013.9 hPa 0.0 l/m 0.2 km/h (0 Bft) O-NO -1.8 C -0.2 C
19.11.2001 06:00 -0.2 C 89 % 1014.8 hPa 0.0 l/m 0.0 km/h (0 Bft) N -1.8 C -0.2 C
19.11.2001 07:00 -0.2 C 89 % 1014.9 hPa 0.0 l/m 0.0 km/h (0 Bft) N -1.8 C -0.2 C
19.11.2001 08:00 -0.2 C 89 % 1014.9 hPa 0.0 l/m 0.1 km/h (0 Bft) N-NO -1.9 C -0.2 C
19.11.2001 09:00 -0.2 C 88 % 1014.9 hPa 0.0 l/m 0.1 km/h (0 Bft) N -1.9 C -0.2 C
19.11.2001 10:00 -0.1 C 89 % 1015.8 hPa 0.0 l/m 0.3 km/h (0 Bft) N -1.7 C -0.1 C
19.11.2001 11:00 0.5 C 85 % 1016.0 hPa 0.0 l/m 0.7 km/h (0 Bft) N-NO -1.7 C 0.4 C
19.11.2001 12:00 0.7 C 82 % 1016.0 hPa 0.0 l/m 2.1 km/h (1 Bft) O-SO -1.9 C 0.3 C
19.11.2001 13:00 0.8 C 79 % 1016.0 hPa 0.0 l/m 2.7 km/h (1 Bft) O -2.4 C 0.2 C
19.11.2001 14:00 0.6 C 75 % 1016.0 hPa 0.0 l/m 3.6 km/h (1 Bft) N -3.3 C -0.4 C
19.11.2001 15:00 -0.1 C 75 % 1016.0 hPa 0.0 l/m 11.6 km/h (2 Bft) O-SO -4.0 C -3.2 C
19.11.2001 16:00 -0.4 C 74 % 1016.9 hPa 0.0 l/m 7.7 km/h (2 Bft) O -4.5 C -2.3 C
19.11.2001 17:00 -0.4 C 73 % 1017.2 hPa 0.0 l/m 3.6 km/h (1 Bft) N-NO -4.7 C -1.4 C
19.11.2001 18:00 -0.6 C 72 % 1018.1 hPa 0.0 l/m 10.1 km/h (2 Bft) O-SO -5.0 C -3.6 C
19.11.2001 19:00 -0.5 C 72 % 1018.1 hPa 0.0 l/m 3.7 km/h (1 Bft) O -5.0 C -1.5 C
19.11.2001 20:00 -0.3 C 72 % 1018.7 hPa 0.0 l/m 9.8 km/h (2 Bft) O-SO -4.7 C -3.2 C
19.11.2001 21:00 -0.1 C 73 % 1019.1 hPa 0.0 l/m 4.3 km/h (1 Bft) O -4.4 C -1.3 C
19.11.2001 22:00 0.1 C 73 % 1019.1 hPa 0.0 l/m 7.7 km/h (2 Bft) O-SO -4.2 C -2.1 C
19.11.2001 23:00 0.2 C 73 % 1019.4 hPa 0.0 l/m 5.5 km/h (1 Bft) NO -4.0 C -1.2 C
20.11.2001 00:00 0.4 C 74 % 1020.1 hPa 0.0 l/m 2.3 km/h (1 Bft) NO -3.6 C 0.0 C
20.11.2001 01:00 0.5 C 76 % 1020.1 hPa 0.0 l/m 5.2 km/h (1 Bft) O-SO -3.3 C -0.9 C
20.11.2001 02:00 0.7 C 76 % 1020.1 hPa 0.0 l/m 3.2 km/h (1 Bft) NO -3.1 C -0.1 C
20.11.2001 03:00 0.8 C 76 % 1020.1 hPa 0.0 l/m 4.9 km/h (1 Bft) O-SO -2.9 C -0.5 C
20.11.2001 04:00 0.7 C 77 % 1020.6 hPa 0.0 l/m 7.2 km/h (2 Bft) O-SO -2.9 C -1.4 C
20.11.2001 05:00 0.6 C 79 % 1021.2 hPa 0.0 l/m 8.7 km/h (2 Bft) O-SO -2.7 C -1.8 C
20.11.2001 06:00 0.4 C 80 % 1021.2 hPa 0.0 l/m 0.1 km/h (0 Bft) O-SO -2.6 C 0.4 C
20.11.2001 07:00 -0.1 C 84 % 1022.0 hPa 0.0 l/m 3.2 km/h (1 Bft) O-SO -2.4 C -0.9 C
20.11.2001 08:00 0.1 C 83 % 1022.2 hPa 0.0 l/m 3.9 km/h (1 Bft) O-SO -2.5 C -1.0 C
20.11.2001 09:00 1.4 C 78 % 1022.9 hPa 0.0 l/m 8.1 km/h (2 Bft) O-SO -1.9 C -1.0 C
20.11.2001 10:00 2.9 C 74 % 1023.3 hPa 0.0 l/m 12.4 km/h (3 Bft) O-SO -1.4 C -0.1 C
20.11.2001 11:00 3.9 C 71 % 1023.3 hPa 0.0 l/m 15.6 km/h (3 Bft) O-SO -0.9 C 0.3 C
20.11.2001 12:00 4.5 C 68 % 1023.3 hPa 0.0 l/m 15.3 km/h (3 Bft) O-SO -0.8 C 1.1 C
20.11.2001 13:00 5.2 C 69 % 1023.3 hPa 0.0 l/m 14.2 km/h (3 Bft) O-SO 0.1 C 2.2 C
20.11.2001 14:00 5.4 C 69 % 1023.3 hPa 0.0 l/m 11.7 km/h (2 Bft) O-SO 0.2 C 2.9 C
20.11.2001 15:00 4.8 C 71 % 1023.3 hPa 0.0 l/m 9.0 km/h (2 Bft) O-SO -0.0 C 2.7 C
20.11.2001 16:00 3.2 C 77 % 1024.2 hPa 0.0 l/m 5.1 km/h (1 Bft) O-SO -0.5 C 1.9 C
20.11.2001 17:00 2.7 C 79 % 1024.3 hPa 0.0 l/m 4.3 km/h (1 Bft) O-SO -0.7 C 1.6 C
20.11.2001 18:00 0.7 C 84 % 1024.9 hPa 0.0 l/m 6.2 km/h (2 Bft) O-SO -1.6 C -1.2 C
20.11.2001 19:00 -0.9 C 90 % 1025.3 hPa 0.0 l/m 7.9 km/h (2 Bft) O-SO -2.2 C -3.7 C
20.11.2001 20:00 -1.9 C 92 % 1025.3 hPa 0.0 l/m 4.7 km/h (1 Bft) O-SO -3.1 C -3.3 C
20.11.2001 21:00 -2.7 C 92 % 1025.7 hPa 0.0 l/m 0.6 km/h (0 Bft) O-SO -3.8 C -2.8 C
20.11.2001 22:00 -3.0 C 92 % 1026.4 hPa 0.0 l/m 1.1 km/h (1 Bft) O-SO -4.1 C -3.2 C
20.11.2001 23:00 -3.3 C 92 % 1026.4 hPa 0.0 l/m 0.0 km/h (0 Bft) N -4.4 C -3.3 C
21.11.2001 00:00 -3.0 C 92 % 1027.3 hPa 0.0 l/m 1.2 km/h (1 Bft) O-SO -4.1 C -3.1 C
21.11.2001 01:00 -2.2 C 92 % 1027.1 hPa 0.0 l/m 0.0 km/h (0 Bft) N -3.3 C -2.2 C
21.11.2001 02:00 -1.6 C 91 % 1027.3 hPa 0.0 l/m 0.0 km/h (0 Bft) N -2.8 C -1.6 C
21.11.2001 03:00 -1.2 C 91 % 1027.4 hPa 0.0 l/m 0.0 km/h (0 Bft) N -2.4 C -1.2 C
21.11.2001 04:00 -1.1 C 93 % 1027.0 hPa 0.0 l/m 0.0 km/h (0 Bft) N -2.1 C -1.1 C
21.11.2001 05:00 -1.0 C 93 % 1027.4 hPa 0.0 l/m 0.0 km/h (0 Bft) N -2.1 C -1.0 C
21.11.2001 06:00 -0.9 C 93 % 1027.4 hPa 0.0 l/m 0.0 km/h (0 Bft) N -2.0 C -0.9 C
21.11.2001 07:00 -0.7 C 92 % 1027.4 hPa 0.0 l/m 0.0 km/h (0 Bft) N -1.8 C -0.7 C
21.11.2001 08:00 -0.4 C 92 % 1028.2 hPa 0.0 l/m 0.1 km/h (0 Bft) NW -1.6 C -0.4 C
21.11.2001 09:00 0.2 C 91 % 1028.5 hPa 0.0 l/m 0.0 km/h (0 Bft) N -1.2 C 0.2 C
21.11.2001 10:00 0.8 C 88 % 1028.5 hPa 0.0 l/m 0.2 km/h (0 Bft) W-NW -1.0 C 0.8 C
21.11.2001 11:00 1.8 C 84 % 1028.5 hPa 0.0 l/m 0.5 km/h (0 Bft) W-NW -0.7 C 1.8 C
21.11.2001 12:00 2.9 C 78 % 1027.5 hPa 0.0 l/m 0.6 km/h (0 Bft) W-NW -0.5 C 2.9 C
21.11.2001 13:00 3.7 C 68 % 1027.4 hPa 0.0 l/m 4.7 km/h (1 Bft) O-SO -1.7 C 2.7 C
21.11.2001 14:00 3.7 C 63 % 1026.9 hPa 0.0 l/m 5.3 km/h (1 Bft) O-SO -2.8 C 2.5 C
21.11.2001 15:00 3.1 C 66 % 1026.4 hPa 0.0 l/m 5.7 km/h (1 Bft) O-SO -2.7 C 1.6 C
21.11.2001 16:00 2.4 C 69 % 1026.4 hPa 0.0 l/m 5.0 km/h (1 Bft) O-SO -2.7 C 1.1 C
21.11.2001 17:00 1.9 C 72 % 1026.4 hPa 0.0 l/m 4.3 km/h (1 Bft) O-SO -2.7 C 0.8 C
21.11.2001 18:00 1.5 C 72 % 1026.4 hPa 0.0 l/m 1.8 km/h (1 Bft) O-SO -2.9 C 1.3 C
21.11.2001 19:00 1.3 C 73 % 1026.4 hPa 0.0 l/m 0.3 km/h (0 Bft) N -3.1 C 1.3 C
21.11.2001 20:00 -0.2 C 79 % 1025.6 hPa 0.0 l/m 0.2 km/h (0 Bft) W -3.5 C -0.2 C
21.11.2001 21:00 -2.0 C 87 % 1025.3 hPa 0.0 l/m 2.6 km/h (1 Bft) O-SO -4.0 C -2.3 C
21.11.2001 22:00 -2.7 C 90 % 1025.3 hPa 0.0 l/m 4.1 km/h (1 Bft) O-SO -4.2 C -3.9 C
21.11.2001 23:00 -3.5 C 90 % 1025.3 hPa 0.0 l/m 0.3 km/h (0 Bft) O -4.9 C -3.6 C
22.11.2001 00:00 -3.3 C 92 % 1025.0 hPa 0.0 l/m 2.8 km/h (1 Bft) O -4.5 C -4.1 C
22.11.2001 01:00 -4.2 C 90 % 1024.7 hPa 0.0 l/m 0.0 km/h (0 Bft) N -5.6 C -4.2 C
22.11.2001 02:00 -4.4 C 91 % 1024.3 hPa 0.0 l/m 0.8 km/h (0 Bft) O-SO -5.7 C -4.6 C
22.11.2001 03:00 -4.6 C 90 % 1023.9 hPa 0.0 l/m 1.3 km/h (1 Bft) O-SO -6.0 C -4.7 C
22.11.2001 04:00 -5.1 C 89 % 1023.3 hPa 0.0 l/m 0.0 km/h (0 Bft) N -6.5 C -5.1 C
22.11.2001 05:00 -4.2 C 91 % 1023.3 hPa 0.0 l/m 0.2 km/h (0 Bft) O-SO -5.4 C -4.2 C
22.11.2001 06:00 -3.4 C 93 % 1023.3 hPa 0.0 l/m 3.3 km/h (1 Bft) W-NW -4.4 C -4.4 C
22.11.2001 07:00 -1.9 C 92 % 1022.5 hPa 0.0 l/m 6.0 km/h (2 Bft) W-NW -3.0 C -3.9 C
22.11.2001 08:00 -1.4 C 90 % 1022.5 hPa 0.0 l/m 1.9 km/h (1 Bft) SO -2.9 C -2.0 C
22.11.2001 09:00 -0.6 C 87 % 1022.2 hPa 0.0 l/m 2.2 km/h (1 Bft) S-SO -2.6 C -1.2 C
22.11.2001 10:00 0.5 C 81 % 1021.3 hPa 0.0 l/m 4.2 km/h (1 Bft) W-NW -2.4 C -0.5 C
22.11.2001 11:00 1.4 C 76 % 1020.3 hPa 0.0 l/m 7.2 km/h (2 Bft) W-NW -2.3 C -0.5 C
22.11.2001 12:00 2.0 C 72 % 1019.1 hPa 0.0 l/m 14.1 km/h (3 Bft) W-NW -2.6 C -1.5 C
22.11.2001 13:00 3.0 C 68 % 1018.2 hPa 0.0 l/m 12.2 km/h (2 Bft) W-NW -2.4 C 0.2 C
22.11.2001 14:00 3.2 C 69 % 1017.2 hPa 0.0 l/m 4.3 km/h (1 Bft) W -1.9 C 2.3 C
22.11.2001 15:00 2.4 C 79 % 1016.0 hPa 0.0 l/m 1.4 km/h (1 Bft) SW -1.0 C 2.2 C
22.11.2001 16:00 1.6 C 90 % 1014.9 hPa 0.9 l/m 0.5 km/h (0 Bft) W-NW 0.1 C 1.5 C
22.11.2001 17:00 1.6 C 93 % 1013.5 hPa 1.3 l/m 0.6 km/h (0 Bft) S 0.6 C 1.6 C
22.11.2001 18:00 1.8 C 95 % 1011.8 hPa 1.3 l/m 0.6 km/h (0 Bft) W-NW 1.0 C 1.6 C
22.11.2001 19:00 2.3 C 94 % 1010.8 hPa 4.4 l/m 4.5 km/h (1 Bft) W-NW 1.5 C 1.2 C
22.11.2001 20:00 3.3 C 94 % 1011.0 hPa 2.2 l/m 22.4 km/h (4 Bft) W-NW 2.5 C -1.2 C
22.11.2001 21:00 3.3 C 91 % 1012.0 hPa 0.0 l/m 43.7 km/h (6 Bft) W-NW 2.0 C -3.1 C
22.11.2001 22:00 2.7 C 91 % 1012.3 hPa 0.3 l/m 43.1 km/h (6 Bft) W-NW 1.4 C -4.0 C
22.11.2001 23:00 2.6 C 90 % 1012.8 hPa 0.0 l/m 39.5 km/h (6 Bft) W-NW 1.1 C -3.9 C
23.11.2001 00:00 2.4 C 91 % 1012.8 hPa 0.0 l/m 34.4 km/h (5 Bft) W-NW 1.0 C -3.7 C
23.11.2001 01:00 2.3 C 92 % 1012.8 hPa 0.0 l/m 24.1 km/h (4 Bft) W-NW 1.0 C -2.5 C
23.11.2001 02:00 1.4 C 91 % 1013.2 hPa 0.3 l/m 18.0 km/h (3 Bft) W-NW 0.1 C -2.7 C
23.11.2001 03:00 -0.2 C 93 % 1013.9 hPa 0.3 l/m 0.1 km/h (0 Bft) N -1.3 C -0.2 C
23.11.2001 04:00 -0.2 C 95 % 1013.9 hPa 0.0 l/m 3.1 km/h (1 Bft) W -0.9 C -1.1 C
23.11.2001 05:00 -0.9 C 92 % 1014.1 hPa 0.0 l/m 3.5 km/h (1 Bft) W-NW -2.0 C -2.0 C
23.11.2001 06:00 -1.4 C 93 % 1014.7 hPa 0.0 l/m 0.1 km/h (0 Bft) N -2.4 C -1.4 C
23.11.2001 07:00 -1.7 C 93 % 1014.9 hPa 0.0 l/m 0.0 km/h (0 Bft) N -2.7 C -1.7 C
23.11.2001 08:00 -0.6 C 92 % 1014.9 hPa 0.3 l/m 8.5 km/h (2 Bft) W-NW -1.8 C -2.7 C
23.11.2001 09:00 -0.6 C 92 % 1015.5 hPa 0.6 l/m 1.4 km/h (1 Bft) W-NW -1.8 C -0.9 C
23.11.2001 10:00 0.2 C 89 % 1016.0 hPa 0.3 l/m 8.6 km/h (2 Bft) W-NW -1.5 C -2.3 C
23.11.2001 11:00 0.7 C 85 % 1016.3 hPa 0.0 l/m 15.2 km/h (3 Bft) W-NW -1.6 C -3.3 C
23.11.2001 12:00 1.5 C 81 % 1017.0 hPa 0.0 l/m 12.1 km/h (2 Bft) W-NW -1.5 C -1.9 C
23.11.2001 13:00 1.9 C 78 % 1017.0 hPa 0.0 l/m 11.7 km/h (2 Bft) W-NW -1.7 C -1.1 C
23.11.2001 14:00 2.5 C 74 % 1017.0 hPa 0.0 l/m 11.0 km/h (2 Bft) W-NW -1.7 C -0.2 C
23.11.2001 15:00 2.8 C 72 % 1017.0 hPa 0.0 l/m 16.8 km/h (3 Bft) W-NW -1.6 C -1.1 C
23.11.2001 16:00 1.4 C 74 % 1018.1 hPa 0.0 l/m 4.8 km/h (1 Bft) W-NW -2.7 C 0.2 C
23.11.2001 17:00 0.2 C 81 % 1018.7 hPa 0.0 l/m 0.3 km/h (0 Bft) S-SW -2.8 C 0.2 C
23.11.2001 18:00 0.4 C 80 % 1019.9 hPa 0.0 l/m 4.9 km/h (1 Bft) SO -2.6 C -1.1 C
23.11.2001 19:00 0.5 C 82 % 1020.1 hPa 0.0 l/m 2.3 km/h (1 Bft) W -2.2 C -0.1 C
23.11.2001 20:00 0.3 C 84 % 1020.1 hPa 0.0 l/m 3.2 km/h (1 Bft) O-SO -2.0 C -0.3 C
23.11.2001 21:00 -0.4 C 89 % 1020.1 hPa 0.0 l/m 1.2 km/h (1 Bft) O-SO -2.0 C -0.5 C
23.11.2001 22:00 -1.1 C 91 % 1020.1 hPa 0.0 l/m 1.3 km/h (1 Bft) SO -2.4 C -1.3 C
23.11.2001 23:00 -1.7 C 92 % 1020.1 hPa 0.0 l/m 1.5 km/h (1 Bft) SO -2.9 C -2.1 C
24.11.2001 00:00 -1.5 C 92 % 1020.1 hPa 0.0 l/m 3.1 km/h (1 Bft) O-SO -2.5 C -2.5 C
24.11.2001 01:00 -1.9 C 93 % 1020.1 hPa 0.0 l/m 5.9 km/h (2 Bft) O-SO -2.9 C -4.0 C
24.11.2001 02:00 -1.7 C 93 % 1020.7 hPa 0.0 l/m 5.8 km/h (2 Bft) SO -2.7 C -3.6 C
24.11.2001 03:00 -1.4 C 91 % 1021.2 hPa 0.0 l/m 3.9 km/h (1 Bft) O-SO -2.7 C -2.6 C
24.11.2001 04:00 -1.4 C 89 % 1021.2 hPa 0.0 l/m 0.3 km/h (0 Bft) S-SO -3.0 C -1.4 C
24.11.2001 05:00 -1.4 C 89 % 1021.2 hPa 0.0 l/m 1.4 km/h (1 Bft) O -2.9 C -1.6 C
24.11.2001 06:00 -1.3 C 87 % 1021.2 hPa 0.0 l/m 3.3 km/h (1 Bft) O-SO -3.1 C -2.1 C
24.11.2001 07:00 -1.3 C 86 % 1021.2 hPa 0.0 l/m 2.5 km/h (1 Bft) NO -3.4 C -1.9 C
24.11.2001 08:00 -1.2 C 86 % 1021.2 hPa 0.0 l/m 3.0 km/h (1 Bft) SO -3.2 C -2.0 C
24.11.2001 09:00 -0.6 C 85 % 1021.2 hPa 0.0 l/m 1.7 km/h (1 Bft) O -2.8 C -0.9 C
24.11.2001 10:00 0.3 C 83 % 1021.2 hPa 0.0 l/m 3.4 km/h (1 Bft) O-SO -2.3 C -0.6 C
24.11.2001 11:00 0.6 C 82 % 1021.2 hPa 0.0 l/m 3.1 km/h (1 Bft) O-SO -2.2 C -0.2 C
24.11.2001 12:00 0.7 C 80 % 1020.9 hPa 0.0 l/m 2.3 km/h (1 Bft) S -2.4 C 0.2 C
24.11.2001 13:00 1.1 C 78 % 1020.1 hPa 0.0 l/m 1.7 km/h (1 Bft) O -2.4 C 1.0 C
24.11.2001 14:00 1.2 C 76 % 1019.4 hPa 0.0 l/m 2.5 km/h (1 Bft) SO -2.5 C 0.7 C
24.11.2001 15:00 1.3 C 76 % 1019.1 hPa 0.0 l/m 1.5 km/h (1 Bft) O -2.4 C 1.1 C
24.11.2001 16:00 1.2 C 77 % 1019.1 hPa 0.0 l/m 2.7 km/h (1 Bft) O-SO -2.3 C 0.5 C
24.11.2001 17:00 0.8 C 80 % 1019.1 hPa 0.0 l/m 1.1 km/h (0 Bft) O-SO -2.2 C 0.6 C
24.11.2001 18:00 0.4 C 85 % 1019.1 hPa 0.0 l/m 6.1 km/h (2 Bft) O-SO -1.8 C -1.5 C
24.11.2001 19:00 0.1 C 88 % 1019.1 hPa 0.0 l/m 3.0 km/h (1 Bft) O-SO -1.6 C -0.8 C
24.11.2001 20:00 -0.0 C 90 % 1019.1 hPa 0.3 l/m 0.8 km/h (0 Bft) S-SO -1.5 C -0.0 C
24.11.2001 21:00 -0.5 C 93 % 1019.1 hPa 0.9 l/m 0.9 km/h (0 Bft) S-SO -1.5 C -0.6 C
24.11.2001 22:00 -0.4 C 94 % 1019.0 hPa 0.3 l/m 3.5 km/h (1 Bft) S-SO -1.2 C -1.1 C
24.11.2001 23:00 -0.2 C 95 % 1018.1 hPa 0.0 l/m 4.6 km/h (1 Bft) O-SO -1.0 C -1.5 C
25.11.2001 00:00 0.0 C 95 % 1018.1 hPa 0.0 l/m 3.9 km/h (1 Bft) O-SO -0.7 C -1.1 C
25.11.2001 01:00 0.2 C 95 % 1018.1 hPa 0.0 l/m 4.0 km/h (1 Bft) O-SO -0.5 C -0.7 C
25.11.2001 02:00 0.4 C 95 % 1017.7 hPa 0.0 l/m 7.5 km/h (2 Bft) O-SO -0.3 C -1.8 C
25.11.2001 03:00 0.5 C 95 % 1017.0 hPa 0.3 l/m 4.2 km/h (1 Bft) O-SO -0.3 C -0.6 C
25.11.2001 04:00 0.6 C 95 % 1017.0 hPa 0.3 l/m 7.1 km/h (2 Bft) O-SO -0.1 C -1.5 C
25.11.2001 05:00 0.7 C 96 % 1017.0 hPa 0.0 l/m 2.6 km/h (1 Bft) O-SO 0.1 C 0.0 C
25.11.2001 06:00 0.8 C 96 % 1017.0 hPa 0.0 l/m 0.5 km/h (0 Bft) SO 0.2 C 0.8 C
25.11.2001 07:00 0.9 C 96 % 1016.9 hPa 0.0 l/m 1.5 km/h (1 Bft) O-SO 0.3 C 0.6 C
25.11.2001 08:00 1.2 C 95 % 1017.0 hPa 0.0 l/m 3.6 km/h (1 Bft) O-SO 0.5 C 0.5 C
25.11.2001 09:00 1.5 C 95 % 1017.0 hPa 0.0 l/m 4.8 km/h (1 Bft) O-SO 0.8 C 0.2 C
25.11.2001 10:00 1.9 C 95 % 1016.9 hPa 0.0 l/m 2.3 km/h (1 Bft) SO 1.1 C 1.4 C
25.11.2001 11:00 2.6 C 93 % 1016.0 hPa 0.0 l/m 4.8 km/h (1 Bft) O-SO 1.6 C 1.4 C
25.11.2001 12:00 3.2 C 91 % 1016.0 hPa 0.0 l/m 3.7 km/h (1 Bft) O 1.9 C 2.4 C
25.11.2001 13:00 3.4 C 91 % 1015.0 hPa 0.0 l/m 3.1 km/h (1 Bft) O-SO 2.0 C 2.8 C
25.11.2001 14:00 3.6 C 91 % 1014.6 hPa 0.0 l/m 2.3 km/h (1 Bft) SO 2.3 C 3.2 C
25.11.2001 15:00 3.4 C 93 % 1013.9 hPa 0.0 l/m 4.1 km/h (1 Bft) O 2.4 C 2.5 C
25.11.2001 16:00 3.4 C 94 % 1013.9 hPa 0.0 l/m 4.3 km/h (1 Bft) O-SO 2.5 C 2.4 C
25.11.2001 17:00 3.3 C 95 % 1013.9 hPa 0.3 l/m 1.0 km/h (0 Bft) O-SO 2.6 C 3.2 C
25.11.2001 18:00 3.4 C 95 % 1013.9 hPa 0.0 l/m 1.5 km/h (1 Bft) SO 2.7 C 3.2 C
25.11.2001 19:00 3.5 C 95 % 1013.3 hPa 0.3 l/m 0.5 km/h (0 Bft) O-SO 2.8 C 3.5 C
25.11.2001 20:00 3.6 C 95 % 1012.8 hPa 0.3 l/m 3.3 km/h (1 Bft) O-SO 2.9 C 3.0 C
25.11.2001 21:00 3.7 C 96 % 1012.8 hPa 0.0 l/m 5.3 km/h (1 Bft) O-SO 3.1 C 2.4 C
25.11.2001 22:00 3.8 C 96 % 1012.8 hPa 0.0 l/m 2.3 km/h (1 Bft) O-SO 3.2 C 3.3 C
25.11.2001 23:00 3.8 C 96 % 1011.9 hPa 0.0 l/m 5.7 km/h (1 Bft) O-SO 3.3 C 2.5 C
Min-Datum _ 22.11.01 21.11.01 22.11.01 - 19.11.01 - 22.11.01 22.11.01
_ Min-Zeit 04:34 14:18 18:49 - 01:13 - 04:34 06:49
Minimum _ -5.4 C 60 % 1010.8 hPa - 0.0 km/h (0 Bft) - -6.9 C -8.3 C
Max-Datum _ 20.11.01 25.11.01 21.11.01 22.11.01 22.11.01 - 25.11.01 20.11.01
_ Max-Zeit 13:41 23:50 08:15 18:00 22:16 - 23:50 14:11
Maximum _ 5.5 C 97 % 1028.5 hPa 4.4 l/m 66.4 km/h
W-NW (8 Bft)
- 3.5 C 5.5 C
Durchschnitt _ 0.5 C 85 % 1019.5 hPa #15.3 l/m 5.0 km/h (1 Bft) O-SO -1.7 C -0.6 C

Durchschnitt Minimum Temp.0.1 C
Durchschnitt Maximum Temp.0.9 C
© Kaiko 2001